LHSM/SOB METAR and TAF weather

Enter ICAO airport designator
Station Type Date Time Source
LHSM METAR 2020/09/20 10:45 UTC NOAA

LHSM 201045Z AUTO VRB03KT CAVOK 21/07 Q1019 NOSIG


Station Type Date Time Source
LHSM Decoded METAR 2020/09/20 10:45 UTC NOAA

Station name not available
Sep 20, 2020 - 06:45 AM EDT / 2020.09.20 1045 UTC
Wind: Variable at 3 MPH (3 KT):0
Visibility: greater than 7 mile(s):0
Temperature: 69 F (21 C)
Dew Point: 44 F (7 C)
Relative Humidity: 40%
Pressure (altimeter): 30.09 in. Hg (1019 hPa)
ob: LHSM 201045Z AUTO VRB03KT CAVOK 21/07 Q1019 NOSIG
cycle: 11

Station Type Date Time Source
LHSM TAF UTC NOAA

Error!

Example: see airport list